Terminal Aerodrome Forecast
Issued by NWS

Home | Current Version | Previous Version | Text Only | Print | Product List | Glossary On
Versions: 1 2 3 4 5 6 7 8 9 10 11 12 13 14 15 16 17
250
FTUS43 KGRR 172347
TAFMKG
TAF
KMKG 172347Z 1800/1824 23012G20KT P6SM VCSH BKN060
     FM180500 25012G20KT P6SM VCSH BKN025
     FM180800 27011KT P6SM VCSH BKN015
     FM181500 28012G20KT P6SM BKN030
     FM181900 27012KT P6SM BKN040=

USA.gov is the U.S. government's official web portal to all federal, state and local government web resources and services.